sensor_id;sensor_type;location;lat;lon;timestamp;P1;durP1;ratioP1;P2;durP2;ratioP2
25207;SDS011;13153;52.316;21.166;2023-02-28T00:00:32;168.23;;;66.85;;
25207;SDS011;13153;52.316;21.166;2023-02-28T00:02:59;167.80;;;66.50;;
25207;SDS011;13153;52.316;21.166;2023-02-28T00:05:25;178.43;;;68.72;;
25207;SDS011;13153;52.316;21.166;2023-02-28T00:07:53;170.85;;;66.60;;
25207;SDS011;13153;52.316;21.166;2023-02-28T00:10:21;166.98;;;66.53;;
25207;SDS011;13153;52.316;21.166;2023-02-28T00:12:51;173.52;;;65.55;;
25207;SDS011;13153;52.316;21.166;2023-02-28T00:15:21;162.90;;;64.38;;
25207;SDS011;13153;52.316;21.166;2023-02-28T00:17:49;166.32;;;66.15;;
25207;SDS011;13153;52.316;21.166;2023-02-28T00:20:15;170.55;;;65.90;;
25207;SDS011;13153;52.316;21.166;2023-02-28T00:22:42;174.00;;;65.95;;
25207;SDS011;13153;52.316;21.166;2023-02-28T00:25:13;170.07;;;66.15;;
25207;SDS011;13153;52.316;21.166;2023-02-28T00:27:43;174.95;;;67.75;;
25207;SDS011;13153;52.316;21.166;2023-02-28T00:30:10;183.40;;;70.65;;
25207;SDS011;13153;52.316;21.166;2023-02-28T00:32:41;226.75;;;78.47;;
25207;SDS011;13153;52.316;21.166;2023-02-28T00:35:07;259.58;;;85.38;;
25207;SDS011;13153;52.316;21.166;2023-02-28T00:37:34;292.77;;;88.57;;
25207;SDS011;13153;52.316;21.166;2023-02-28T00:40:00;323.05;;;90.82;;
25207;SDS011;13153;52.316;21.166;2023-02-28T00:42:29;277.27;;;83.18;;
25207;SDS011;13153;52.316;21.166;2023-02-28T00:44:55;228.38;;;67.75;;
25207;SDS011;13153;52.316;21.166;2023-02-28T00:47:21;211.80;;;64.35;;
25207;SDS011;13153;52.316;21.166;2023-02-28T00:49:47;175.13;;;53.33;;
25207;SDS011;13153;52.316;21.166;2023-02-28T00:52:13;134.25;;;43.08;;
25207;SDS011;13153;52.316;21.166;2023-02-28T00:54:39;136.35;;;41.05;;
25207;SDS011;13153;52.316;21.166;2023-02-28T00:57:04;120.90;;;40.58;;
25207;SDS011;13153;52.316;21.166;2023-02-28T00:59:30;117.05;;;36.47;;
25207;SDS011;13153;52.316;21.166;2023-02-28T01:01:56;104.13;;;35.20;;
25207;SDS011;13153;52.316;21.166;2023-02-28T01:04:22;100.55;;;32.80;;
25207;SDS011;13153;52.316;21.166;2023-02-28T01:06:48;100.03;;;33.88;;
25207;SDS011;13153;52.316;21.166;2023-02-28T01:09:13;85.55;;;31.45;;
25207;SDS011;13153;52.316;21.166;2023-02-28T01:11:39;90.72;;;31.13;;
25207;SDS011;13153;52.316;21.166;2023-02-28T01:14:06;102.93;;;33.78;;
25207;SDS011;13153;52.316;21.166;2023-02-28T01:16:33;98.45;;;34.45;;
25207;SDS011;13153;52.316;21.166;2023-02-28T01:18:59;109.10;;;34.53;;
25207;SDS011;13153;52.316;21.166;2023-02-28T01:21:25;105.57;;;32.78;;
25207;SDS011;13153;52.316;21.166;2023-02-28T01:23:51;88.00;;;30.67;;
25207;SDS011;13153;52.316;21.166;2023-02-28T01:26:18;94.80;;;33.30;;
25207;SDS011;13153;52.316;21.166;2023-02-28T01:28:47;111.63;;;34.78;;
25207;SDS011;13153;52.316;21.166;2023-02-28T01:31:15;119.45;;;40.20;;
25207;SDS011;13153;52.316;21.166;2023-02-28T01:33:42;137.77;;;47.58;;
25207;SDS011;13153;52.316;21.166;2023-02-28T01:36:19;156.05;;;55.92;;
25207;SDS011;13153;52.316;21.166;2023-02-28T01:38:48;173.52;;;60.63;;
25207;SDS011;13153;52.316;21.166;2023-02-28T01:41:18;158.95;;;59.17;;
25207;SDS011;13153;52.316;21.166;2023-02-28T01:46:24;165.07;;;60.10;;
25207;SDS011;13153;52.316;21.166;2023-02-28T01:49:11;163.55;;;60.83;;
25207;SDS011;13153;52.316;21.166;2023-02-28T01:54:33;155.27;;;55.78;;
25207;SDS011;13153;52.316;21.166;2023-02-28T01:57:07;142.98;;;53.05;;
25207;SDS011;13153;52.316;21.166;2023-02-28T02:02:15;140.63;;;52.95;;
25207;SDS011;13153;52.316;21.166;2023-02-28T02:05:46;164.25;;;61.53;;
25207;SDS011;13153;52.316;21.166;2023-02-28T02:07:47;173.27;;;65.72;;
25207;SDS011;13153;52.316;21.166;2023-02-28T02:10:52;126.93;;;49.60;;
25207;SDS011;13153;52.316;21.166;2023-02-28T02:13:28;122.22;;;47.38;;
25207;SDS011;13153;52.316;21.166;2023-02-28T02:31:41;142.80;;;54.92;;
25207;SDS011;13153;52.316;21.166;2023-02-28T02:45:36;191.57;;;76.43;;
25207;SDS011;13153;52.316;21.166;2023-02-28T02:48:11;218.15;;;80.88;;
25207;SDS011;13153;52.316;21.166;2023-02-28T02:51:03;197.32;;;76.78;;
25207;SDS011;13153;52.316;21.166;2023-02-28T02:53:38;227.30;;;84.57;;
25207;SDS011;13153;52.316;21.166;2023-02-28T02:56:14;238.05;;;87.10;;
25207;SDS011;13153;52.316;21.166;2023-02-28T02:58:46;236.18;;;88.80;;
25207;SDS011;13153;52.316;21.166;2023-02-28T03:01:18;217.93;;;84.30;;
25207;SDS011;13153;52.316;21.166;2023-02-28T03:03:58;211.40;;;82.35;;
25207;SDS011;13153;52.316;21.166;2023-02-28T03:06:32;194.23;;;74.80;;
25207;SDS011;13153;52.316;21.166;2023-02-28T03:09:00;193.90;;;72.55;;
25207;SDS011;13153;52.316;21.166;2023-02-28T03:11:26;178.18;;;65.85;;
25207;SDS011;13153;52.316;21.166;2023-02-28T03:23:10;159.43;;;61.80;;
25207;SDS011;13153;52.316;21.166;2023-02-28T03:25:54;162.32;;;62.38;;
25207;SDS011;13153;52.316;21.166;2023-02-28T03:34:19;170.65;;;66.60;;
25207;SDS011;13153;52.316;21.166;2023-02-28T03:36:55;189.85;;;68.38;;
25207;SDS011;13153;52.316;21.166;2023-02-28T03:42:11;197.05;;;69.47;;
25207;SDS011;13153;52.316;21.166;2023-02-28T03:47:40;203.82;;;73.05;;
25207;SDS011;13153;52.316;21.166;2023-02-28T03:53:15;189.70;;;72.30;;
25207;SDS011;13153;52.316;21.166;2023-02-28T03:55:57;212.75;;;73.85;;
25207;SDS011;13153;52.316;21.166;2023-02-28T04:01:08;198.48;;;70.05;;
25207;SDS011;13153;52.316;21.166;2023-02-28T04:03:44;205.07;;;74.65;;
25207;SDS011;13153;52.316;21.166;2023-02-28T04:06:14;209.52;;;72.50;;
25207;SDS011;13153;52.316;21.166;2023-02-28T04:08:45;193.27;;;70.15;;
25207;SDS011;13153;52.316;21.166;2023-02-28T04:13:40;201.65;;;68.95;;
25207;SDS011;13153;52.316;21.166;2023-02-28T04:16:09;215.93;;;72.45;;
25207;SDS011;13153;52.316;21.166;2023-02-28T04:18:38;199.57;;;66.30;;
25207;SDS011;13153;52.316;21.166;2023-02-28T04:21:05;182.95;;;62.88;;
25207;SDS011;13153;52.316;21.166;2023-02-28T04:23:32;183.57;;;60.60;;
25207;SDS011;13153;52.316;21.166;2023-02-28T04:25:58;175.70;;;62.17;;
25207;SDS011;13153;52.316;21.166;2023-02-28T04:28:24;175.10;;;62.53;;
25207;SDS011;13153;52.316;21.166;2023-02-28T04:30:54;182.20;;;62.72;;
25207;SDS011;13153;52.316;21.166;2023-02-28T04:33:22;166.02;;;59.85;;
25207;SDS011;13153;52.316;21.166;2023-02-28T04:35:48;151.77;;;53.30;;
25207;SDS011;13153;52.316;21.166;2023-02-28T04:40:48;138.65;;;48.50;;
25207;SDS011;13153;52.316;21.166;2023-02-28T04:43:13;141.32;;;46.20;;
25207;SDS011;13153;52.316;21.166;2023-02-28T04:45:39;131.55;;;47.28;;
25207;SDS011;13153;52.316;21.166;2023-02-28T04:48:05;119.82;;;42.55;;
25207;SDS011;13153;52.316;21.166;2023-02-28T04:50:31;119.97;;;42.88;;
25207;SDS011;13153;52.316;21.166;2023-02-28T04:52:57;113.60;;;41.83;;
25207;SDS011;13153;52.316;21.166;2023-02-28T04:55:22;111.80;;;39.55;;
25207;SDS011;13153;52.316;21.166;2023-02-28T04:57:48;107.32;;;37.83;;
25207;SDS011;13153;52.316;21.166;2023-02-28T05:00:14;94.65;;;35.72;;
25207;SDS011;13153;52.316;21.166;2023-02-28T05:02:41;87.72;;;32.63;;
25207;SDS011;13153;52.316;21.166;2023-02-28T05:05:07;91.65;;;34.28;;
25207;SDS011;13153;52.316;21.166;2023-02-28T05:07:33;88.00;;;33.55;;
25207;SDS011;13153;52.316;21.166;2023-02-28T05:09:59;87.05;;;31.40;;
25207;SDS011;13153;52.316;21.166;2023-02-28T05:12:25;98.18;;;33.83;;
25207;SDS011;13153;52.316;21.166;2023-02-28T05:14:51;91.63;;;34.78;;
25207;SDS011;13153;52.316;21.166;2023-02-28T05:17:16;92.55;;;34.67;;
25207;SDS011;13153;52.316;21.166;2023-02-28T05:19:42;96.53;;;35.42;;
25207;SDS011;13153;52.316;21.166;2023-02-28T05:22:12;96.72;;;35.97;;
25207;SDS011;13153;52.316;21.166;2023-02-28T05:24:41;98.07;;;35.80;;
25207;SDS011;13153;52.316;21.166;2023-02-28T05:27:07;95.88;;;36.15;;
25207;SDS011;13153;52.316;21.166;2023-02-28T05:29:34;117.65;;;38.75;;
25207;SDS011;13153;52.316;21.166;2023-02-28T05:32:06;104.03;;;40.63;;
25207;SDS011;13153;52.316;21.166;2023-02-28T05:34:39;118.80;;;42.05;;
25207;SDS011;13153;52.316;21.166;2023-02-28T05:37:07;112.35;;;41.08;;
25207;SDS011;13153;52.316;21.166;2023-02-28T05:39:38;105.78;;;39.10;;
25207;SDS011;13153;52.316;21.166;2023-02-28T05:42:04;110.38;;;39.13;;
25207;SDS011;13153;52.316;21.166;2023-02-28T05:44:30;95.45;;;36.58;;
25207;SDS011;13153;52.316;21.166;2023-02-28T05:46:56;104.65;;;38.20;;
25207;SDS011;13153;52.316;21.166;2023-02-28T05:49:22;107.90;;;37.33;;
25207;SDS011;13153;52.316;21.166;2023-02-28T05:51:47;100.88;;;37.75;;
25207;SDS011;13153;52.316;21.166;2023-02-28T05:54:13;104.65;;;38.03;;
25207;SDS011;13153;52.316;21.166;2023-02-28T05:56:39;107.03;;;38.47;;
25207;SDS011;13153;52.316;21.166;2023-02-28T05:59:06;95.97;;;36.60;;
25207;SDS011;13153;52.316;21.166;2023-02-28T06:01:36;103.57;;;38.22;;
25207;SDS011;13153;52.316;21.166;2023-02-28T06:04:06;108.03;;;40.58;;
25207;SDS011;13153;52.316;21.166;2023-02-28T06:06:35;102.43;;;37.90;;
25207;SDS011;13153;52.316;21.166;2023-02-28T06:09:02;100.43;;;38.42;;
25207;SDS011;13153;52.316;21.166;2023-02-28T06:11:30;95.97;;;37.20;;
25207;SDS011;13153;52.316;21.166;2023-02-28T06:13:57;97.55;;;37.95;;
25207;SDS011;13153;52.316;21.166;2023-02-28T06:16:26;100.90;;;38.60;;
25207;SDS011;13153;52.316;21.166;2023-02-28T06:18:54;91.25;;;37.20;;
25207;SDS011;13153;52.316;21.166;2023-02-28T06:21:22;93.13;;;38.72;;
25207;SDS011;13153;52.316;21.166;2023-02-28T06:23:49;96.38;;;38.10;;
25207;SDS011;13153;52.316;21.166;2023-02-28T06:26:15;88.53;;;36.60;;
25207;SDS011;13153;52.316;21.166;2023-02-28T06:28:41;80.18;;;33.22;;
25207;SDS011;13153;52.316;21.166;2023-02-28T06:31:08;83.53;;;35.25;;
25207;SDS011;13153;52.316;21.166;2023-02-28T06:33:37;79.57;;;33.15;;
25207;SDS011;13153;52.316;21.166;2023-02-28T06:36:04;78.70;;;34.67;;
25207;SDS011;13153;52.316;21.166;2023-02-28T06:38:32;85.07;;;34.90;;
25207;SDS011;13153;52.316;21.166;2023-02-28T06:41:00;89.18;;;37.22;;
25207;SDS011;13153;52.316;21.166;2023-02-28T06:43:31;83.75;;;36.92;;
25207;SDS011;13153;52.316;21.166;2023-02-28T06:46:00;91.97;;;37.53;;
25207;SDS011;13153;52.316;21.166;2023-02-28T06:48:29;87.97;;;36.55;;
25207;SDS011;13153;52.316;21.166;2023-02-28T06:51:07;68.68;;;29.83;;
25207;SDS011;13153;52.316;21.166;2023-02-28T06:53:40;79.53;;;34.47;;
25207;SDS011;13153;52.316;21.166;2023-02-28T06:56:06;88.85;;;35.83;;
25207;SDS011;13153;52.316;21.166;2023-02-28T06:58:36;85.75;;;34.47;;
25207;SDS011;13153;52.316;21.166;2023-02-28T07:01:03;70.75;;;32.15;;
25207;SDS011;13153;52.316;21.166;2023-02-28T07:03:30;78.65;;;35.17;;
25207;SDS011;13153;52.316;21.166;2023-02-28T07:05:56;77.47;;;33.35;;
25207;SDS011;13153;52.316;21.166;2023-02-28T07:08:23;74.93;;;31.02;;
25207;SDS011;13153;52.316;21.166;2023-02-28T07:10:53;80.20;;;32.00;;
25207;SDS011;13153;52.316;21.166;2023-02-28T07:13:20;69.43;;;32.72;;
25207;SDS011;13153;52.316;21.166;2023-02-28T07:15:57;69.40;;;30.35;;
25207;SDS011;13153;52.316;21.166;2023-02-28T07:18:26;69.85;;;31.63;;
25207;SDS011;13153;52.316;21.166;2023-02-28T07:20:52;66.63;;;30.30;;
25207;SDS011;13153;52.316;21.166;2023-02-28T07:23:18;76.30;;;31.55;;
25207;SDS011;13153;52.316;21.166;2023-02-28T07:25:45;74.53;;;32.35;;
25207;SDS011;13153;52.316;21.166;2023-02-28T07:28:11;66.80;;;27.52;;
25207;SDS011;13153;52.316;21.166;2023-02-28T07:30:38;54.40;;;24.38;;
25207;SDS011;13153;52.316;21.166;2023-02-28T07:33:05;58.92;;;25.30;;
25207;SDS011;13153;52.316;21.166;2023-02-28T07:35:30;72.90;;;31.60;;
25207;SDS011;13153;52.316;21.166;2023-02-28T07:37:57;82.97;;;35.53;;
25207;SDS011;13153;52.316;21.166;2023-02-28T07:40:25;83.47;;;37.53;;
25207;SDS011;13153;52.316;21.166;2023-02-28T07:42:51;43.28;;;19.88;;
25207;SDS011;13153;52.316;21.166;2023-02-28T07:45:16;25.48;;;13.45;;
25207;SDS011;13153;52.316;21.166;2023-02-28T07:47:43;24.77;;;13.82;;
25207;SDS011;13153;52.316;21.166;2023-02-28T07:50:10;22.02;;;12.00;;
25207;SDS011;13153;52.316;21.166;2023-02-28T07:52:39;31.20;;;15.50;;
25207;SDS011;13153;52.316;21.166;2023-02-28T07:55:09;31.10;;;15.25;;
25207;SDS011;13153;52.316;21.166;2023-02-28T07:57:36;24.30;;;14.50;;
25207;SDS011;13153;52.316;21.166;2023-02-28T08:00:05;17.67;;;11.02;;
25207;SDS011;13153;52.316;21.166;2023-02-28T08:02:35;19.42;;;11.30;;
25207;SDS011;13153;52.316;21.166;2023-02-28T08:05:01;20.08;;;11.23;;
25207;SDS011;13153;52.316;21.166;2023-02-28T08:07:27;22.50;;;10.75;;
25207;SDS011;13153;52.316;21.166;2023-02-28T08:09:53;20.02;;;11.23;;
25207;SDS011;13153;52.316;21.166;2023-02-28T08:12:19;18.30;;;10.10;;
25207;SDS011;13153;52.316;21.166;2023-02-28T08:14:45;14.15;;;8.63;;
25207;SDS011;13153;52.316;21.166;2023-02-28T08:17:11;17.30;;;9.23;;
25207;SDS011;13153;52.316;21.166;2023-02-28T08:19:37;15.63;;;8.60;;
25207;SDS011;13153;52.316;21.166;2023-02-28T08:22:03;13.52;;;8.70;;
25207;SDS011;13153;52.316;21.166;2023-02-28T08:24:30;19.13;;;11.82;;
25207;SDS011;13153;52.316;21.166;2023-02-28T08:26:56;19.27;;;10.35;;
25207;SDS011;13153;52.316;21.166;2023-02-28T08:29:23;16.02;;;9.50;;
25207;SDS011;13153;52.316;21.166;2023-02-28T08:31:49;17.27;;;10.13;;
25207;SDS011;13153;52.316;21.166;2023-02-28T08:34:15;17.38;;;9.98;;
25207;SDS011;13153;52.316;21.166;2023-02-28T08:36:42;15.48;;;9.25;;
25207;SDS011;13153;52.316;21.166;2023-02-28T08:39:10;15.82;;;10.27;;
25207;SDS011;13153;52.316;21.166;2023-02-28T08:41:36;18.77;;;10.40;;
25207;SDS011;13153;52.316;21.166;2023-02-28T08:44:02;14.75;;;9.45;;
25207;SDS011;13153;52.316;21.166;2023-02-28T08:46:28;16.42;;;9.20;;
25207;SDS011;13153;52.316;21.166;2023-02-28T08:48:54;16.27;;;9.10;;
25207;SDS011;13153;52.316;21.166;2023-02-28T08:51:25;17.13;;;9.77;;
25207;SDS011;13153;52.316;21.166;2023-02-28T08:53:55;16.00;;;9.00;;
25207;SDS011;13153;52.316;21.166;2023-02-28T08:56:24;18.63;;;10.15;;
25207;SDS011;13153;52.316;21.166;2023-02-28T08:58:53;17.05;;;9.98;;
25207;SDS011;13153;52.316;21.166;2023-02-28T09:01:22;19.15;;;10.82;;
25207;SDS011;13153;52.316;21.166;2023-02-28T09:03:54;21.90;;;10.82;;
25207;SDS011;13153;52.316;21.166;2023-02-28T09:06:22;18.85;;;10.88;;
25207;SDS011;13153;52.316;21.166;2023-02-28T09:08:51;19.88;;;11.55;;
25207;SDS011;13153;52.316;21.166;2023-02-28T09:11:17;22.30;;;11.75;;
25207;SDS011;13153;52.316;21.166;2023-02-28T09:13:44;18.15;;;11.18;;
25207;SDS011;13153;52.316;21.166;2023-02-28T09:16:12;26.95;;;13.38;;
25207;SDS011;13153;52.316;21.166;2023-02-28T09:18:41;28.77;;;14.98;;
25207;SDS011;13153;52.316;21.166;2023-02-28T09:21:13;27.90;;;14.68;;
25207;SDS011;13153;52.316;21.166;2023-02-28T09:23:42;30.30;;;14.35;;
25207;SDS011;13153;52.316;21.166;2023-02-28T09:26:17;26.15;;;13.55;;
25207;SDS011;13153;52.316;21.166;2023-02-28T09:28:48;28.35;;;14.48;;
25207;SDS011;13153;52.316;21.166;2023-02-28T09:31:22;30.02;;;15.38;;
25207;SDS011;13153;52.316;21.166;2023-02-28T09:33:52;27.67;;;15.73;;
25207;SDS011;13153;52.316;21.166;2023-02-28T09:36:20;33.45;;;15.98;;
25207;SDS011;13153;52.316;21.166;2023-02-28T09:38:48;28.63;;;16.05;;
25207;SDS011;13153;52.316;21.166;2023-02-28T09:43:58;29.40;;;15.32;;
25207;SDS011;13153;52.316;21.166;2023-02-28T09:46:32;26.90;;;14.95;;
25207;SDS011;13153;52.316;21.166;2023-02-28T09:49:16;27.38;;;14.82;;
25207;SDS011;13153;52.316;21.166;2023-02-28T09:52:06;29.17;;;14.95;;
25207;SDS011;13153;52.316;21.166;2023-02-28T09:54:56;29.75;;;15.32;;
25207;SDS011;13153;52.316;21.166;2023-02-28T09:57:43;24.77;;;14.23;;
25207;SDS011;13153;52.316;21.166;2023-02-28T10:00:13;29.88;;;14.90;;
25207;SDS011;13153;52.316;21.166;2023-02-28T10:06:23;26.40;;;13.10;;
25207;SDS011;13153;52.316;21.166;2023-02-28T10:11:38;24.70;;;13.40;;
25207;SDS011;13153;52.316;21.166;2023-02-28T10:14:19;26.50;;;13.35;;
25207;SDS011;13153;52.316;21.166;2023-02-28T10:16:50;24.90;;;13.30;;
25207;SDS011;13153;52.316;21.166;2023-02-28T10:22:11;26.35;;;12.52;;
25207;SDS011;13153;52.316;21.166;2023-02-28T10:24:40;23.65;;;12.95;;
25207;SDS011;13153;52.316;21.166;2023-02-28T10:29:44;24.27;;;12.07;;
25207;SDS011;13153;52.316;21.166;2023-02-28T10:32:18;24.13;;;12.25;;
25207;SDS011;13153;52.316;21.166;2023-02-28T10:37:49;24.60;;;12.60;;
25207;SDS011;13153;52.316;21.166;2023-02-28T10:42:55;23.50;;;13.02;;
25207;SDS011;13153;52.316;21.166;2023-02-28T10:45:40;20.75;;;11.82;;
25207;SDS011;13153;52.316;21.166;2023-02-28T10:50:55;23.98;;;13.40;;
25207;SDS011;13153;52.316;21.166;2023-02-28T10:53:25;21.27;;;12.27;;
25207;SDS011;13153;52.316;21.166;2023-02-28T10:56:21;21.38;;;12.48;;
25207;SDS011;13153;52.316;21.166;2023-02-28T10:58:53;22.60;;;13.07;;
25207;SDS011;13153;52.316;21.166;2023-02-28T11:01:52;22.02;;;12.35;;
25207;SDS011;13153;52.316;21.166;2023-02-28T11:07:01;20.80;;;11.70;;
25207;SDS011;13153;52.316;21.166;2023-02-28T11:09:33;20.98;;;11.50;;
25207;SDS011;13153;52.316;21.166;2023-02-28T11:12:04;21.88;;;12.10;;
25207;SDS011;13153;52.316;21.166;2023-02-28T11:20:39;20.67;;;11.20;;
25207;SDS011;13153;52.316;21.166;2023-02-28T11:23:06;17.73;;;10.90;;
25207;SDS011;13153;52.316;21.166;2023-02-28T11:25:39;23.15;;;11.15;;
25207;SDS011;13153;52.316;21.166;2023-02-28T11:28:34;20.98;;;11.70;;
25207;SDS011;13153;52.316;21.166;2023-02-28T11:31:14;21.95;;;11.45;;
25207;SDS011;13153;52.316;21.166;2023-02-28T11:39:03;19.20;;;11.30;;
25207;SDS011;13153;52.316;21.166;2023-02-28T11:41:46;21.70;;;11.93;;
25207;SDS011;13153;52.316;21.166;2023-02-28T12:07:15;23.35;;;12.00;;
25207;SDS011;13153;52.316;21.166;2023-02-28T12:15:52;21.42;;;12.25;;
25207;SDS011;13153;52.316;21.166;2023-02-28T12:24:37;21.38;;;12.13;;
25207;SDS011;13153;52.316;21.166;2023-02-28T12:27:46;27.00;;;11.90;;
25207;SDS011;13153;52.316;21.166;2023-02-28T12:32:55;30.45;;;12.43;;
25207;SDS011;13153;52.316;21.166;2023-02-28T12:35:36;34.17;;;13.65;;
25207;SDS011;13153;52.316;21.166;2023-02-28T12:38:25;29.52;;;12.63;;
25207;SDS011;13153;52.316;21.166;2023-02-28T12:41:08;24.80;;;12.85;;
25207;SDS011;13153;52.316;21.166;2023-02-28T12:43:46;55.20;;;16.17;;
25207;SDS011;13153;52.316;21.166;2023-02-28T12:46:23;27.13;;;12.85;;
25207;SDS011;13153;52.316;21.166;2023-02-28T12:48:59;27.98;;;12.35;;
25207;SDS011;13153;52.316;21.166;2023-02-28T12:51:38;26.75;;;12.43;;
25207;SDS011;13153;52.316;21.166;2023-02-28T12:59:56;26.92;;;11.55;;
25207;SDS011;13153;52.316;21.166;2023-02-28T13:03:33;27.67;;;11.80;;
25207;SDS011;13153;52.316;21.166;2023-02-28T13:08:03;22.60;;;11.77;;
25207;SDS011;13153;52.316;21.166;2023-02-28T13:10:59;21.15;;;11.35;;
25207;SDS011;13153;52.316;21.166;2023-02-28T13:13:26;20.70;;;11.30;;
25207;SDS011;13153;52.316;21.166;2023-02-28T13:15:59;24.55;;;11.93;;
25207;SDS011;13153;52.316;21.166;2023-02-28T13:21:23;20.90;;;12.07;;
25207;SDS011;13153;52.316;21.166;2023-02-28T13:32:18;27.90;;;12.50;;
25207;SDS011;13153;52.316;21.166;2023-02-28T13:34:30;19.80;;;11.20;;
25207;SDS011;13153;52.316;21.166;2023-02-28T13:50:21;22.08;;;11.07;;
25207;SDS011;13153;52.316;21.166;2023-02-28T14:07:46;22.58;;;11.10;;
25207;SDS011;13153;52.316;21.166;2023-02-28T14:10:28;20.73;;;11.93;;
25207;SDS011;13153;52.316;21.166;2023-02-28T14:16:02;22.35;;;10.65;;
25207;SDS011;13153;52.316;21.166;2023-02-28T14:18:35;21.20;;;11.52;;
25207;SDS011;13153;52.316;21.166;2023-02-28T14:21:10;20.13;;;11.00;;
25207;SDS011;13153;52.316;21.166;2023-02-28T14:32:18;23.77;;;11.60;;
25207;SDS011;13153;52.316;21.166;2023-02-28T14:38:33;41.33;;;12.20;;
25207;SDS011;13153;52.316;21.166;2023-02-28T14:41:22;121.93;;;18.85;;
25207;SDS011;13153;52.316;21.166;2023-02-28T14:43:57;55.25;;;13.70;;
25207;SDS011;13153;52.316;21.166;2023-02-28T14:46:26;23.73;;;11.40;;
25207;SDS011;13153;52.316;21.166;2023-02-28T14:49:06;18.25;;;10.38;;
25207;SDS011;13153;52.316;21.166;2023-02-28T14:51:47;23.45;;;10.43;;
25207;SDS011;13153;52.316;21.166;2023-02-28T14:54:26;21.50;;;10.80;;
25207;SDS011;13153;52.316;21.166;2023-02-28T14:56:52;22.35;;;10.80;;
25207;SDS011;13153;52.316;21.166;2023-02-28T14:59:25;20.77;;;10.27;;
25207;SDS011;13153;52.316;21.166;2023-02-28T15:07:23;20.38;;;10.27;;
25207;SDS011;13153;52.316;21.166;2023-02-28T15:10:38;19.13;;;10.40;;
25207;SDS011;13153;52.316;21.166;2023-02-28T15:12:44;20.30;;;10.10;;
25207;SDS011;13153;52.316;21.166;2023-02-28T15:15:26;102.43;;;15.85;;
25207;SDS011;13153;52.316;21.166;2023-02-28T15:24:20;26.13;;;10.05;;
25207;SDS011;13153;52.316;21.166;2023-02-28T15:27:25;30.08;;;10.23;;
25207;SDS011;13153;52.316;21.166;2023-02-28T15:29:57;16.27;;;9.25;;
25207;SDS011;13153;52.316;21.166;2023-02-28T15:32:37;17.73;;;9.75;;
25207;SDS011;13153;52.316;21.166;2023-02-28T15:35:18;24.25;;;11.02;;
25207;SDS011;13153;52.316;21.166;2023-02-28T15:37:54;21.38;;;11.52;;
25207;SDS011;13153;52.316;21.166;2023-02-28T15:40:42;21.17;;;10.98;;
25207;SDS011;13153;52.316;21.166;2023-02-28T15:43:34;24.67;;;9.55;;
25207;SDS011;13153;52.316;21.166;2023-02-28T15:46:09;50.03;;;12.52;;
25207;SDS011;13153;52.316;21.166;2023-02-28T15:51:18;22.42;;;10.40;;
25207;SDS011;13153;52.316;21.166;2023-02-28T15:56:27;29.17;;;10.05;;
25207;SDS011;13153;52.316;21.166;2023-02-28T15:59:01;22.17;;;10.03;;
25207;SDS011;13153;52.316;21.166;2023-02-28T16:01:35;23.23;;;10.95;;
25207;SDS011;13153;52.316;21.166;2023-02-28T16:04:21;23.45;;;11.05;;
25207;SDS011;13153;52.316;21.166;2023-02-28T16:09:23;28.13;;;12.70;;
25207;SDS011;13153;52.316;21.166;2023-02-28T16:11:50;26.73;;;12.43;;
25207;SDS011;13153;52.316;21.166;2023-02-28T16:14:22;27.02;;;11.90;;
25207;SDS011;13153;52.316;21.166;2023-02-28T16:17:06;25.23;;;12.27;;
25207;SDS011;13153;52.316;21.166;2023-02-28T16:19:44;23.08;;;12.25;;
25207;SDS011;13153;52.316;21.166;2023-02-28T16:22:10;26.33;;;12.73;;
25207;SDS011;13153;52.316;21.166;2023-02-28T16:24:36;28.45;;;13.57;;
25207;SDS011;13153;52.316;21.166;2023-02-28T16:27:03;49.97;;;19.92;;
25207;SDS011;13153;52.316;21.166;2023-02-28T16:29:31;55.33;;;20.83;;
25207;SDS011;13153;52.316;21.166;2023-02-28T16:32:01;63.30;;;23.63;;
25207;SDS011;13153;52.316;21.166;2023-02-28T16:34:31;62.92;;;22.05;;
25207;SDS011;13153;52.316;21.166;2023-02-28T16:36:56;57.38;;;20.48;;
25207;SDS011;13153;52.316;21.166;2023-02-28T16:39:23;58.50;;;19.83;;
25207;SDS011;13153;52.316;21.166;2023-02-28T16:41:49;50.00;;;19.38;;
25207;SDS011;13153;52.316;21.166;2023-02-28T16:44:23;52.70;;;20.05;;
25207;SDS011;13153;52.316;21.166;2023-02-28T16:47:02;61.03;;;24.08;;
25207;SDS011;13153;52.316;21.166;2023-02-28T16:49:29;61.08;;;21.80;;
25207;SDS011;13153;52.316;21.166;2023-02-28T16:51:55;48.88;;;18.70;;
25207;SDS011;13153;52.316;21.166;2023-02-28T16:54:21;44.92;;;18.52;;
25207;SDS011;13153;52.316;21.166;2023-02-28T16:56:47;51.53;;;19.10;;
25207;SDS011;13153;52.316;21.166;2023-02-28T16:59:15;45.45;;;19.73;;
25207;SDS011;13153;52.316;21.166;2023-02-28T17:01:48;51.92;;;19.92;;
25207;SDS011;13153;52.316;21.166;2023-02-28T17:04:14;53.38;;;22.25;;
25207;SDS011;13153;52.316;21.166;2023-02-28T17:06:40;54.47;;;21.70;;
25207;SDS011;13153;52.316;21.166;2023-02-28T17:09:08;50.80;;;22.17;;
25207;SDS011;13153;52.316;21.166;2023-02-28T17:11:47;50.08;;;21.80;;
25207;SDS011;13153;52.316;21.166;2023-02-28T17:14:14;51.15;;;23.30;;
25207;SDS011;13153;52.316;21.166;2023-02-28T17:16:41;53.83;;;25.27;;
25207;SDS011;13153;52.316;21.166;2023-02-28T17:19:11;56.65;;;25.13;;
25207;SDS011;13153;52.316;21.166;2023-02-28T17:21:40;54.55;;;24.98;;
25207;SDS011;13153;52.316;21.166;2023-02-28T17:24:07;66.75;;;27.95;;
25207;SDS011;13153;52.316;21.166;2023-02-28T17:26:37;113.78;;;47.13;;
25207;SDS011;13153;52.316;21.166;2023-02-28T17:29:25;68.32;;;29.30;;
25207;SDS011;13153;52.316;21.166;2023-02-28T17:31:51;61.70;;;25.67;;
25207;SDS011;13153;52.316;21.166;2023-02-28T17:34:18;57.05;;;25.33;;
25207;SDS011;13153;52.316;21.166;2023-02-28T17:36:45;64.80;;;25.63;;
25207;SDS011;13153;52.316;21.166;2023-02-28T17:39:13;106.57;;;42.80;;
25207;SDS011;13153;52.316;21.166;2023-02-28T17:41:48;87.85;;;36.03;;
25207;SDS011;13153;52.316;21.166;2023-02-28T17:44:20;73.20;;;29.90;;
25207;SDS011;13153;52.316;21.166;2023-02-28T17:46:47;79.45;;;31.75;;
25207;SDS011;13153;52.316;21.166;2023-02-28T17:49:14;85.35;;;34.15;;
25207;SDS011;13153;52.316;21.166;2023-02-28T17:51:43;131.30;;;49.30;;
25207;SDS011;13153;52.316;21.166;2023-02-28T17:54:10;132.15;;;49.55;;
25207;SDS011;13153;52.316;21.166;2023-02-28T17:56:35;133.65;;;50.67;;
25207;SDS011;13153;52.316;21.166;2023-02-28T17:59:01;121.55;;;50.60;;
25207;SDS011;13153;52.316;21.166;2023-02-28T18:01:28;123.40;;;48.85;;
25207;SDS011;13153;52.316;21.166;2023-02-28T18:03:54;131.10;;;51.35;;
25207;SDS011;13153;52.316;21.166;2023-02-28T18:06:22;131.40;;;51.83;;
25207;SDS011;13153;52.316;21.166;2023-02-28T18:09:11;134.32;;;52.40;;
25207;SDS011;13153;52.316;21.166;2023-02-28T18:11:51;124.97;;;50.22;;